KNBG/NBG METAR and TAF weather

Enter ICAO airport designator
Station Type Date Time Source
KNBG METAR 2020/11/27 12:55 UTC NOAA

KNBG 271255Z 00000KT 1/8SM FG VV002 21/21 A3008 RMK AO2 SLP183 T02110211 $


Station Type Date Time Source
KNBG Decoded METAR 2020/11/27 12:55 UTC NOAA

NEW ORLEANS NAVAL AIR STN, LA, United States (KNBG) 29-50N 90-01W
Nov 27, 2020 - 07:55 AM EST / 2020.11.27 1255 UTC
Wind: Calm:0
Visibility: 1/8 mile(s):0
Sky conditions: obscured
Weather: fog
Temperature: 70.0 F (21.1 C)
Dew Point: 70.0 F (21.1 C)
Relative Humidity: 100%
Pressure (altimeter): 30.08 in. Hg (1018 hPa)
ob: KNBG 271255Z 00000KT 1/8SM FG VV002 21/21 A3008 RMK AO2 SLP183 T02110211
cycle: 13

Station Type Date Time Source
KNBG TAF 2020/11/27 09:53 UTC NOAA

TAF
AMD KNBG 2709/2807 VRB05KT 3600 BR VCSH OVC005 QNH3001INS
TEMPO 2709/2715 1200 BR OVC002
BECMG 2715/2717 VRB06KT 9999 VCSH SCT025 BKN050 QNH2998INS
TEMPO 2718/2800 4800 SHRA BKN015 OVC030 AUTOMATED SENSOR METWATCH 2709 TIL 2711 T21/2712Z T25/2721Z
AMD 0935 FN00205

Example: see airport list